Time;durP1;ratioP1;P1;durP2;ratioP2;P2;SDS_P1;SDS_P2;PMS_P1;PMS_P2;Temp;Humidity;BMP_temperature;BMP_pressure;BME280_temperature;BME280_humidity;BME280_pressure;Samples;Min_cycle;Max_cycle;Signal;HPM_P1;HPM_P2
2024/02/15 00:00:04;;;;;;;1.87;1.40;;;17.90;57.80;;;;;;4990925;28;20534;-66
2024/02/15 00:02:30;;;;;;;1.83;1.73;;;17.80;57.60;;;;;;4998681;28;20187;-65
2024/02/15 00:04:56;;;;;;;3.63;1.87;;;17.90;57.70;;;;;;5006433;28;20487;-64
2024/02/15 00:07:22;;;;;;;1.93;1.70;;;17.80;57.60;;;;;;4970511;28;21123;-62
2024/02/15 00:09:48;;;;;;;1.60;1.50;;;17.80;57.80;;;;;;4985534;28;20708;-59
2024/02/15 00:12:14;;;;;;;1.60;1.50;;;17.80;57.80;;;;;;5004992;28;20501;-69
2024/02/15 00:14:39;;;;;;;1.80;1.50;;;17.80;57.80;;;;;;4990134;28;20477;-61
2024/02/15 00:17:05;;;;;;;1.60;1.47;;;17.80;57.90;;;;;;4992672;28;20231;-66
2024/02/15 00:19:31;;;;;;;2.93;1.50;;;17.80;57.90;;;;;;5000821;28;20222;-67
2024/02/15 00:21:57;;;;;;;2.20;1.53;;;17.80;58.00;;;;;;4970682;28;20194;-66
2024/02/15 00:24:23;;;;;;;2.43;2.03;;;17.80;58.00;;;;;;4982757;28;20190;-59
2024/02/15 00:26:49;;;;;;;1.93;1.73;;;17.80;58.00;;;;;;4993122;28;20929;-63
2024/02/15 00:29:15;;;;;;;2.37;1.47;;;17.80;58.00;;;;;;4995631;28;20450;-70
2024/02/15 00:31:40;;;;;;;2.90;1.80;;;17.80;57.90;;;;;;5001275;28;20175;-64
2024/02/15 00:34:06;;;;;;;2.43;1.40;;;17.80;57.80;;;;;;4977602;28;20275;-59
2024/02/15 00:36:35;;;;;;;2.53;2.07;;;17.80;57.70;;;;;;4990979;28;20340;-74
2024/02/15 00:39:01;;;;;;;2.17;1.60;;;17.80;57.70;;;;;;4993133;28;21025;-62
2024/02/15 00:41:27;;;;;;;2.40;1.60;;;17.80;57.80;;;;;;4974736;28;20559;-63
2024/02/15 00:43:53;;;;;;;1.83;1.73;;;17.80;57.80;;;;;;4980789;28;20199;-69
2024/02/15 00:46:18;;;;;;;2.40;1.77;;;17.80;58.00;;;;;;4966219;28;20453;-59
2024/02/15 00:48:44;;;;;;;2.63;1.60;;;17.80;58.00;;;;;;4980875;28;20191;-78
2024/02/15 00:51:10;;;;;;;3.80;2.03;;;17.80;57.90;;;;;;5002124;28;20278;-61
2024/02/15 00:53:36;;;;;;;2.73;1.90;;;17.80;57.90;;;;;;4961916;28;20526;-65
2024/02/15 00:56:01;;;;;;;2.17;1.83;;;17.80;57.80;;;;;;4964285;28;20314;-70
2024/02/15 00:58:27;;;;;;;2.57;1.90;;;17.80;57.90;;;;;;4959696;28;20228;-66
2024/02/15 01:00:53;;;;;;;3.47;2.10;;;17.80;57.90;;;;;;4970725;28;20213;-63
2024/02/15 01:03:19;;;;;;;2.60;1.73;;;17.80;57.80;;;;;;4963321;28;20199;-71
2024/02/15 01:05:45;;;;;;;5.43;2.17;;;17.80;57.90;;;;;;4962020;28;20443;-60
2024/02/15 01:08:11;;;;;;;1.87;1.47;;;17.70;57.80;;;;;;4962187;28;20188;-61
2024/02/15 01:10:36;;;;;;;2.57;1.60;;;17.70;57.90;;;;;;4963371;28;20202;-67
2024/02/15 01:13:02;;;;;;;1.60;1.33;;;17.70;58.00;;;;;;4959698;28;20282;-68
2024/02/15 01:15:28;;;;;;;5.30;2.03;;;17.70;58.00;;;;;;4963456;28;20211;-69
2024/02/15 01:17:53;;;;;;;3.77;2.17;;;17.70;57.90;;;;;;4957466;28;20245;-60
2024/02/15 01:20:21;;;;;;;2.40;1.80;;;17.70;58.00;;;;;;4963112;28;20226;-62
2024/02/15 01:22:46;;;;;;;2.80;1.90;;;17.70;58.10;;;;;;4968640;28;20563;-61
2024/02/15 01:25:12;;;;;;;2.10;1.73;;;17.60;58.00;;;;;;4964440;28;20447;-70
2024/02/15 01:27:38;;;;;;;2.27;1.90;;;17.60;58.50;;;;;;4962644;28;20267;-66
2024/02/15 01:30:05;;;;;;;5.30;2.30;;;17.60;58.00;;;;;;4972612;28;20430;-65
2024/02/15 01:32:30;;;;;;;2.93;1.90;;;17.60;57.90;;;;;;4962101;28;20450;-65
2024/02/15 01:34:56;;;;;;;3.83;2.00;;;17.60;57.90;;;;;;4969399;28;20461;-66
2024/02/15 01:37:22;;;;;;;2.67;1.93;;;17.60;58.00;;;;;;4985979;28;20473;-69
2024/02/15 01:39:48;;;;;;;2.00;1.90;;;17.60;57.90;;;;;;4988428;28;20268;-69
2024/02/15 01:42:14;;;;;;;3.47;1.70;;;17.60;57.90;;;;;;4997220;28;20189;-64
2024/02/15 01:44:40;;;;;;;2.90;1.90;;;17.50;57.80;;;;;;5005928;28;20417;-70
2024/02/15 01:47:08;;;;;;;4.10;1.90;;;17.50;57.90;;;;;;4978415;28;20210;-66
2024/02/15 01:49:34;;;;;;;2.10;1.90;;;17.40;58.40;;;;;;4990376;28;20442;-70
2024/02/15 01:52:02;;;;;;;5.47;1.83;;;17.40;58.00;;;;;;4972410;28;20434;-63
2024/02/15 01:54:28;;;;;;;2.07;1.70;;;17.30;58.10;;;;;;4981052;28;20192;-62
2024/02/15 01:56:54;;;;;;;4.00;1.57;;;17.40;58.10;;;;;;4983765;28;20648;-62
2024/02/15 01:59:22;;;;;;;4.50;1.80;;;17.40;58.00;;;;;;4985283;28;20478;-60
2024/02/15 02:01:48;;;;;;;2.40;1.83;;;17.40;57.80;;;;;;4987521;28;20599;-70
2024/02/15 02:04:14;;;;;;;3.73;1.60;;;17.30;58.00;;;;;;4996352;28;20545;-59
2024/02/15 02:06:40;;;;;;;2.10;1.83;;;17.30;57.80;;;;;;4965517;28;20473;-61
2024/02/15 02:09:11;;;;;;;2.10;1.90;;;17.30;57.90;;;;;;4997164;28;20191;-67
2024/02/15 02:11:36;;;;;;;1.80;1.70;;;17.30;57.90;;;;;;5008681;28;20443;-71
2024/02/15 02:14:02;;;;;;;3.17;2.17;;;17.30;58.00;;;;;;4997429;28;20469;-60
2024/02/15 02:16:29;;;;;;;2.17;1.50;;;17.20;58.10;;;;;;4966582;28;20207;-61
2024/02/15 02:18:56;;;;;;;2.07;1.60;;;17.20;58.20;;;;;;4996352;28;20228;-71
2024/02/15 02:21:24;;;;;;;2.87;1.80;;;17.10;58.30;;;;;;4984547;28;21110;-60
2024/02/15 02:23:55;;;;;;;3.43;2.00;;;17.20;58.20;;;;;;4968101;28;20446;-63
2024/02/15 02:26:22;;;;;;;3.47;1.73;;;17.20;58.00;;;;;;4983812;28;20485;-70
2024/02/15 02:28:48;;;;;;;2.10;1.70;;;17.20;57.90;;;;;;4989603;28;20427;-63
2024/02/15 02:31:13;;;;;;;2.70;1.83;;;17.20;57.70;;;;;;4982760;28;20811;-61
2024/02/15 02:33:40;;;;;;;3.47;1.63;;;17.20;57.80;;;;;;4975662;28;20481;-65
2024/02/15 02:36:11;;;;;;;3.07;1.97;;;17.20;57.70;;;;;;5001045;28;20211;-63
2024/02/15 02:38:37;;;;;;;7.00;1.90;;;17.10;58.30;;;;;;4974792;28;20451;-65
2024/02/15 02:41:06;;;;;;;1.90;1.73;;;17.10;57.70;;;;;;4959254;28;20434;-68
2024/02/15 02:43:32;;;;;;;3.47;2.07;;;17.10;57.50;;;;;;4959950;28;20442;-66
2024/02/15 02:45:57;;;;;;;2.40;1.60;;;17.10;57.50;;;;;;4962776;28;20969;-65
2024/02/15 02:48:23;;;;;;;2.10;1.87;;;17.00;57.50;;;;;;4972329;28;20331;-71
2024/02/15 02:50:49;;;;;;;3.40;1.60;;;17.00;57.90;;;;;;4959905;28;20217;-60
2024/02/15 02:53:15;;;;;;;2.43;1.70;;;17.00;57.90;;;;;;4965143;28;20199;-67
2024/02/15 02:55:43;;;;;;;2.77;2.33;;;16.90;57.80;;;;;;4965962;28;20462;-61
2024/02/15 02:58:09;;;;;;;2.70;1.77;;;16.90;57.90;;;;;;4960595;28;20329;-71
2024/02/15 03:00:35;;;;;;;2.43;1.87;;;16.90;58.10;;;;;;4962712;28;20557;-61
2024/02/15 03:03:00;;;;;;;2.73;1.70;;;16.90;58.10;;;;;;4964664;28;20179;-60
2024/02/15 03:05:26;;;;;;;3.63;2.00;;;16.90;58.10;;;;;;4966238;28;20286;-65
2024/02/15 03:07:52;;;;;;;4.03;1.53;;;16.90;58.20;;;;;;4961604;28;20218;-66
2024/02/15 03:10:18;;;;;;;5.50;2.30;;;16.80;58.20;;;;;;4972793;28;20477;-72
2024/02/15 03:12:46;;;;;;;2.03;1.63;;;16.80;58.20;;;;;;4959479;28;20280;-73
2024/02/15 03:15:12;;;;;;;2.43;1.67;;;16.70;58.20;;;;;;4961536;28;20467;-70
2024/02/15 03:17:46;;;;;;;2.03;1.50;;;16.70;58.30;;;;;;4959135;28;20463;-65
2024/02/15 03:20:21;;;;;;;2.43;1.63;;;16.60;58.40;;;;;;4959194;28;20485;-69
2024/02/15 03:22:57;;;;;;;3.27;1.87;;;16.60;58.50;;;;;;4959695;28;20500;-60
2024/02/15 03:25:28;;;;;;;3.30;1.90;;;16.60;58.70;;;;;;4970581;28;20446;-61
2024/02/15 03:27:56;;;;;;;3.87;2.03;;;16.50;58.70;;;;;;4963233;28;20427;-73
2024/02/15 03:30:23;;;;;;;3.20;2.07;;;16.50;58.90;;;;;;4964727;28;20438;-66
2024/02/15 03:32:50;;;;;;;2.00;1.80;;;16.50;58.90;;;;;;4973080;28;20527;-60
2024/02/15 03:35:17;;;;;;;3.73;1.80;;;16.50;59.50;;;;;;4972410;28;20455;-65
2024/02/15 03:37:42;;;;;;;1.63;1.53;;;16.40;58.90;;;;;;4966577;28;20512;-76
2024/02/15 03:40:09;;;;;;;2.23;2.03;;;16.40;59.00;;;;;;4980301;28;20470;-63
2024/02/15 03:42:38;;;;;;;2.40;2.10;;;16.40;59.10;;;;;;4970394;28;20187;-64
2024/02/15 03:45:06;;;;;;;3.10;2.00;;;16.40;59.00;;;;;;4969913;28;20434;-69
2024/02/15 03:47:33;;;;;;;5.20;1.90;;;16.30;59.00;;;;;;4967297;28;20464;-69
2024/02/15 03:49:59;;;;;;;2.83;1.80;;;16.30;59.10;;;;;;4999887;28;20487;-65
2024/02/15 03:52:24;;;;;;;2.27;2.07;;;16.30;59.20;;;;;;4972966;28;20525;-70
2024/02/15 03:54:50;;;;;;;2.70;2.20;;;16.10;59.20;;;;;;4975776;28;20455;-63
2024/02/15 03:57:17;;;;;;;2.20;2.00;;;16.00;59.50;;;;;;4981516;28;20327;-70
2024/02/15 03:59:42;;;;;;;5.53;2.50;;;15.90;59.60;;;;;;4994492;28;20277;-84
2024/02/15 04:02:12;;;;;;;2.07;1.67;;;15.90;59.40;;;;;;4967603;28;20864;-67
2024/02/15 04:04:42;;;;;;;1.97;1.80;;;16.00;59.40;;;;;;4967068;28;20187;-70
2024/02/15 04:07:07;;;;;;;1.87;1.50;;;15.90;59.40;;;;;;4979607;28;20469;-63
2024/02/15 04:09:35;;;;;;;1.97;1.87;;;15.90;59.40;;;;;;4991924;28;20447;-69
2024/02/15 04:12:01;;;;;;;2.97;1.83;;;15.80;59.40;;;;;;4998291;28;20186;-66
2024/02/15 04:14:27;;;;;;;2.43;1.50;;;15.70;59.60;;;;;;4974287;28;20445;-65
2024/02/15 04:16:52;;;;;;;2.27;1.73;;;15.70;59.60;;;;;;4968184;28;20835;-65
2024/02/15 04:19:19;;;;;;;3.40;2.03;;;15.70;59.60;;;;;;4975457;28;20620;-65
2024/02/15 04:21:47;;;;;;;2.60;1.90;;;15.60;59.70;;;;;;4968808;28;20195;-60
2024/02/15 04:24:12;;;;;;;2.13;1.90;;;15.60;60.00;;;;;;4974427;28;20459;-66
2024/02/15 04:26:38;;;;;;;3.10;2.03;;;15.60;60.10;;;;;;4976462;28;20466;-68
2024/02/15 04:29:04;;;;;;;3.00;2.33;;;15.60;60.30;;;;;;4977083;28;20195;-67
2024/02/15 04:31:31;;;;;;;1.90;1.70;;;15.60;60.50;;;;;;4964165;28;20274;-60
2024/02/15 04:33:56;;;;;;;2.70;2.50;;;15.40;60.90;;;;;;4975034;28;20191;-65
2024/02/15 04:36:26;;;;;;;2.90;2.40;;;15.10;62.00;;;;;;4981072;28;20452;-68
2024/02/15 04:38:52;;;;;;;2.17;1.97;;;15.10;62.40;;;;;;4991475;28;20229;-62
2024/02/15 04:41:23;;;;;;;3.20;2.27;;;15.10;62.30;;;;;;4990892;28;21124;-61
2024/02/15 04:43:49;;;;;;;2.00;1.83;;;15.20;62.20;;;;;;4968485;28;20450;-71
2024/02/15 04:46:15;;;;;;;5.00;2.10;;;15.20;62.10;;;;;;4967775;28;20462;-74
2024/02/15 04:48:42;;;;;;;2.07;1.90;;;15.20;62.40;;;;;;4970203;28;20494;-63
2024/02/15 04:51:09;;;;;;;3.57;1.97;;;15.10;62.90;;;;;;4965102;28;20587;-61
2024/02/15 04:53:36;;;;;;;2.10;1.90;;;15.00;63.50;;;;;;4959678;28;20438;-71
2024/02/15 04:56:06;;;;;;;2.33;1.60;;;15.10;63.50;;;;;;4965140;28;20486;-66
2024/02/15 04:58:36;;;;;;;2.73;1.83;;;15.00;63.40;;;;;;4965373;28;20946;-63
2024/02/15 05:01:04;;;;;;;1.73;1.63;;;15.00;64.00;;;;;;4963333;28;20456;-64
2024/02/15 05:03:34;;;;;;;1.37;1.27;;;15.00;64.00;;;;;;4961307;28;20831;-60
2024/02/15 05:06:00;;;;;;;5.03;2.90;;;15.00;64.20;;;;;;4962059;28;20508;-60
2024/02/15 05:08:26;;;;;;;2.50;2.30;;;15.00;64.20;;;;;;4960578;28;20443;-60
2024/02/15 05:10:56;;;;;;;3.20;2.30;;;15.00;64.10;;;;;;4967476;28;20443;-61
2024/02/15 05:13:23;;;;;;;1.43;1.33;;;15.00;64.00;;;;;;4964636;28;20659;-61
2024/02/15 05:15:49;;;;;;;3.27;1.77;;;15.00;63.90;;;;;;4965959;28;20469;-61
2024/02/15 05:18:16;;;;;;;4.80;2.10;;;15.00;64.00;;;;;;4961336;28;20550;-60
2024/02/15 05:20:42;;;;;;;1.83;1.50;;;14.90;64.00;;;;;;4961884;28;20474;-60
2024/02/15 05:23:08;;;;;;;2.10;1.80;;;15.00;64.30;;;;;;4964799;28;20865;-60
2024/02/15 05:25:35;;;;;;;2.57;2.23;;;15.00;64.10;;;;;;4963954;28;20206;-60
2024/02/15 05:28:01;;;;;;;2.47;2.20;;;15.10;63.60;;;;;;4963283;28;20198;-61
2024/02/15 05:30:26;;;;;;;2.43;2.23;;;15.10;64.20;;;;;;4966371;28;20447;-61
2024/02/15 05:32:53;;;;;;;5.30;2.97;;;15.30;63.20;;;;;;4964571;28;20183;-60
2024/02/15 05:35:18;;;;;;;5.03;2.90;;;15.30;62.90;;;;;;4965735;28;20658;-61
2024/02/15 05:37:45;;;;;;;2.70;2.50;;;15.30;62.80;;;;;;4988365;28;20450;-61
2024/02/15 05:40:15;;;;;;;6.80;3.27;;;15.30;62.30;;;;;;4982837;28;20208;-59
2024/02/15 05:42:45;;;;;;;3.77;2.93;;;15.30;62.00;;;;;;4975424;28;20458;-61
2024/02/15 05:45:25;;;;;;;5.37;2.60;;;15.30;62.40;;;;;;4983672;28;20426;-61
2024/02/15 05:47:54;;;;;;;4.23;2.87;;;15.50;61.90;;;;;;5006387;28;20447;-60
2024/02/15 05:50:21;;;;;;;5.20;3.13;;;15.60;61.50;;;;;;5019997;28;20482;-61
2024/02/15 05:52:47;;;;;;;12.00;6.90;;;15.70;61.10;;;;;;4966237;28;20439;-61
2024/02/15 05:55:18;;;;;;;10.60;7.07;;;15.70;60.80;;;;;;4997192;28;20454;-60
2024/02/15 05:57:44;;;;;;;7.40;5.13;;;15.70;60.60;;;;;;4996053;28;20469;-61
2024/02/15 06:00:11;;;;;;;6.70;3.80;;;15.70;60.60;;;;;;4997981;28;20469;-60
2024/02/15 06:02:36;;;;;;;4.43;3.07;;;15.80;60.40;;;;;;4984053;28;20752;-61
2024/02/15 06:05:04;;;;;;;3.80;2.20;;;15.60;60.40;;;;;;4976514;28;20439;-60
2024/02/15 06:07:31;;;;;;;6.23;1.60;;;15.70;60.80;;;;;;4987444;28;20211;-61
2024/02/15 06:09:57;;;;;;;3.83;2.10;;;15.50;61.00;;;;;;4967426;28;20981;-61
2024/02/15 06:12:23;;;;;;;4.10;2.27;;;15.20;61.70;;;;;;4977822;28;21005;-60
2024/02/15 06:14:48;;;;;;;2.50;2.07;;;15.20;61.90;;;;;;4970541;28;20446;-61
2024/02/15 06:17:14;;;;;;;3.00;1.97;;;15.10;62.40;;;;;;4996512;28;20211;-61
2024/02/15 06:19:40;;;;;;;2.30;2.03;;;15.10;62.60;;;;;;4975502;28;20306;-60
2024/02/15 06:22:05;;;;;;;4.80;2.57;;;15.30;63.00;;;;;;4989982;28;20191;-60
2024/02/15 06:24:31;;;;;;;3.37;2.27;;;15.40;62.30;;;;;;4974925;28;20647;-60
2024/02/15 06:26:59;;;;;;;3.87;2.13;;;15.50;62.30;;;;;;4981857;28;20206;-61
2024/02/15 06:40:23;;;;;;;5.13;2.30;;;16.10;59.20;;;;;;4961128;28;20771;-61
2024/02/15 06:42:49;;;;;;;1.83;1.70;;;16.00;59.10;;;;;;4961118;28;20537;-60
2024/02/15 06:45:16;;;;;;;1.60;1.50;;;15.80;59.50;;;;;;4965068;28;20261;-60
2024/02/15 06:47:45;;;;;;;2.80;1.60;;;15.70;60.00;;;;;;4964874;28;20844;-61
2024/02/15 06:50:13;;;;;;;3.77;2.30;;;15.30;60.70;;;;;;4966759;28;20419;-60
2024/02/15 06:52:43;;;;;;;2.23;1.90;;;15.30;61.10;;;;;;4967083;28;20484;-61
2024/02/15 06:55:11;;;;;;;5.07;1.83;;;15.00;62.00;;;;;;4969644;28;21149;-60
2024/02/15 06:57:40;;;;;;;3.70;3.07;;;15.20;62.10;;;;;;4966986;28;20474;-61
2024/02/15 07:00:09;;;;;;;4.17;2.60;;;15.40;61.90;;;;;;4964608;28;20483;-60
2024/02/15 07:02:35;;;;;;;3.43;2.30;;;15.20;61.40;;;;;;4963940;28;20435;-60
2024/02/15 07:05:02;;;;;;;5.03;2.17;;;15.30;62.10;;;;;;4964185;28;20485;-61
2024/02/15 07:07:28;;;;;;;5.10;2.23;;;15.60;60.90;;;;;;4965414;28;20528;-61
2024/02/15 07:09:54;;;;;;;4.97;2.17;;;15.70;60.40;;;;;;4967204;28;21135;-61
2024/02/15 07:12:21;;;;;;;3.00;2.10;;;15.90;60.00;;;;;;4964079;28;20195;-60
2024/02/15 07:14:47;;;;;;;2.67;2.23;;;16.10;59.20;;;;;;4967273;28;20210;-60
2024/02/15 07:17:12;;;;;;;3.00;1.90;;;16.20;58.90;;;;;;4967568;28;20470;-60
2024/02/15 07:19:43;;;;;;;3.83;2.20;;;16.00;59.10;;;;;;4969839;28;20500;-61
2024/02/15 07:22:09;;;;;;;2.40;2.20;;;15.70;59.40;;;;;;4976141;28;20203;-60
2024/02/15 07:24:37;;;;;;;2.57;1.80;;;15.60;60.60;;;;;;4968781;28;20689;-59
2024/02/15 07:27:04;;;;;;;2.50;2.20;;;15.80;60.40;;;;;;4965182;28;20485;-60
2024/02/15 07:29:31;;;;;;;1.97;1.87;;;15.90;59.90;;;;;;4967009;28;20845;-61
2024/02/15 07:31:57;;;;;;;2.20;2.00;;;16.20;59.60;;;;;;4967188;28;20435;-61
2024/02/15 07:34:23;;;;;;;5.20;2.23;;;16.50;58.80;;;;;;4970142;28;21064;-59
2024/02/15 07:36:51;;;;;;;3.13;2.30;;;16.60;58.50;;;;;;4968290;28;20582;-60
2024/02/15 07:39:23;;;;;;;3.43;2.27;;;16.70;58.20;;;;;;4967507;28;20249;-60
2024/02/15 07:41:50;;;;;;;2.83;2.17;;;16.90;58.00;;;;;;4970067;28;20426;-60
2024/02/15 07:44:17;;;;;;;2.77;2.50;;;16.90;57.70;;;;;;4968272;28;20442;-62
2024/02/15 07:46:42;;;;;;;2.10;2.00;;;16.80;57.80;;;;;;4968303;28;20459;-60
2024/02/15 07:49:08;;;;;;;2.60;2.37;;;16.90;57.50;;;;;;4969937;28;20434;-59
2024/02/15 07:51:33;;;;;;;4.40;2.10;;;16.80;57.70;;;;;;4970142;28;20189;-61
2024/02/15 07:54:01;;;;;;;2.53;1.90;;;16.70;57.80;;;;;;4968069;28;20198;-61
2024/02/15 07:56:26;;;;;;;3.43;2.13;;;16.60;58.40;;;;;;4969339;28;20780;-60
2024/02/15 07:58:52;;;;;;;2.93;2.47;;;16.90;58.00;;;;;;4969913;28;20426;-60
2024/02/15 08:01:21;;;;;;;3.43;2.13;;;17.20;57.40;;;;;;4980965;28;20191;-60
2024/02/15 08:03:47;;;;;;;2.87;2.03;;;17.40;56.70;;;;;;4978002;28;20435;-61
2024/02/15 08:06:14;;;;;;;3.10;2.70;;;17.30;56.50;;;;;;4967568;28;20446;-61
2024/02/15 08:08:41;;;;;;;4.20;2.20;;;17.50;56.60;;;;;;4968072;28;20192;-61
2024/02/15 08:11:15;;;;;;;2.40;2.20;;;17.40;56.40;;;;;;4967219;28;20961;-60
2024/02/15 08:13:45;;;;;;;2.50;2.10;;;17.30;56.70;;;;;;4968540;28;21007;-59
2024/02/15 08:16:12;;;;;;;5.63;2.37;;;17.30;56.60;;;;;;4968012;28;20946;-60
2024/02/15 08:18:38;;;;;;;2.53;2.23;;;17.00;57.20;;;;;;4969024;28;20423;-61
2024/02/15 08:21:04;;;;;;;3.50;1.97;;;16.90;57.60;;;;;;4969474;28;20565;-61
2024/02/15 08:23:30;;;;;;;2.50;1.83;;;16.80;57.40;;;;;;4972420;28;20441;-60
2024/02/15 08:25:57;;;;;;;2.13;1.77;;;16.70;57.50;;;;;;4968584;28;20450;-60
2024/02/15 08:28:23;;;;;;;2.13;1.77;;;16.40;58.10;;;;;;4966255;28;20219;-62
2024/02/15 08:30:48;;;;;;;2.10;1.77;;;16.50;58.30;;;;;;4992115;28;20486;-61
2024/02/15 08:33:14;;;;;;;2.33;1.40;;;16.70;57.90;;;;;;4967527;28;20227;-61
2024/02/15 08:35:41;;;;;;;1.80;1.70;;;17.00;57.30;;;;;;4969071;28;20191;-60
2024/02/15 08:38:06;;;;;;;3.63;2.13;;;16.90;56.90;;;;;;4968160;28;20685;-61
2024/02/15 08:40:32;;;;;;;6.77;3.00;;;17.10;57.20;;;;;;4969348;28;20467;-61
2024/02/15 08:42:58;;;;;;;3.90;1.80;;;17.50;56.70;;;;;;4968797;28;20179;-61
2024/02/15 08:45:24;;;;;;;3.40;2.33;;;17.40;56.30;;;;;;4969628;28;20253;-59
2024/02/15 08:47:52;;;;;;;3.33;1.77;;;17.60;56.00;;;;;;4963594;28;20207;-60
2024/02/15 08:50:18;;;;;;;2.67;2.13;;;17.50;56.10;;;;;;4967771;28;20458;-61
2024/02/15 08:52:44;;;;;;;3.33;2.00;;;17.50;56.00;;;;;;4968972;28;20446;-58
2024/02/15 08:55:14;;;;;;;3.60;2.37;;;17.70;55.80;;;;;;4967636;28;20443;-60
2024/02/15 08:57:40;;;;;;;3.37;2.33;;;17.80;55.50;;;;;;4963682;28;20215;-61
2024/02/15 09:00:13;;;;;;;2.10;1.90;;;18.00;55.30;;;;;;4974238;28;20523;-62
2024/02/15 09:02:45;;;;;;;2.63;2.10;;;18.00;55.20;;;;;;4972250;28;20469;-61
2024/02/15 09:05:14;;;;;;;4.17;2.50;;;18.10;55.10;;;;;;4965157;28;20459;-61
2024/02/15 09:07:42;;;;;;;4.53;2.40;;;18.20;55.20;;;;;;4965387;28;20448;-62
2024/02/15 09:10:11;;;;;;;4.10;1.80;;;18.40;55.00;;;;;;4982147;28;20431;-61
2024/02/15 09:12:40;;;;;;;3.70;2.37;;;18.40;54.70;;;;;;4968154;28;20451;-62
2024/02/15 09:15:07;;;;;;;3.37;2.37;;;18.60;54.30;;;;;;4982593;28;20447;-60
2024/02/15 09:17:38;;;;;;;2.70;2.33;;;18.70;54.10;;;;;;4968981;28;20450;-60
2024/02/15 09:20:28;;;;;;;4.80;2.17;;;18.70;54.10;;;;;;4971037;28;20613;-59
2024/02/15 09:22:54;;;;;;;2.93;2.00;;;18.90;53.90;;;;;;4968473;28;20958;-61
2024/02/15 09:25:26;;;;;;;4.37;2.03;;;18.80;53.80;;;;;;4967428;28;20848;-60
2024/02/15 09:27:55;;;;;;;6.40;2.30;;;18.90;53.60;;;;;;4970355;28;20963;-61
2024/02/15 09:30:20;;;;;;;2.67;1.90;;;18.90;53.20;;;;;;4967221;28;20484;-61
2024/02/15 09:32:46;;;;;;;3.10;1.70;;;19.20;53.10;;;;;;4967418;28;20435;-60
2024/02/15 09:35:12;;;;;;;3.80;2.40;;;19.20;52.80;;;;;;4966517;28;20335;-62
2024/02/15 09:37:43;;;;;;;3.23;1.90;;;19.30;52.70;;;;;;4966589;28;20786;-61
2024/02/15 09:40:11;;;;;;;4.80;2.10;;;19.50;52.20;;;;;;4967948;28;20471;-61
2024/02/15 09:42:39;;;;;;;3.37;2.10;;;19.60;52.40;;;;;;4965533;28;20458;-61
2024/02/15 09:45:05;;;;;;;2.33;2.13;;;19.80;51.80;;;;;;4968709;28;20443;-60
2024/02/15 09:47:38;;;;;;;3.03;2.70;;;19.70;51.70;;;;;;4970494;28;20980;-61
2024/02/15 09:50:11;;;;;;;2.33;1.57;;;19.80;52.10;;;;;;4986882;28;20474;-60
2024/02/15 09:52:40;;;;;;;1.70;1.30;;;20.10;51.40;;;;;;4975883;28;20438;-61
2024/02/15 09:55:10;;;;;;;2.60;1.57;;;20.30;51.30;;;;;;4983546;28;20537;-62
2024/02/15 09:57:36;;;;;;;1.97;1.30;;;20.50;50.30;;;;;;4979741;28;20761;-61
2024/02/15 10:00:07;;;;;;;1.70;1.60;;;20.60;50.00;;;;;;4976271;28;20546;-63
2024/02/15 10:02:35;;;;;;;2.20;1.90;;;20.70;50.00;;;;;;4981279;28;20191;-62
2024/02/15 10:05:01;;;;;;;2.73;1.53;;;20.90;49.70;;;;;;4981206;28;20434;-61
2024/02/15 10:07:27;;;;;;;3.20;1.47;;;21.20;49.30;;;;;;4974234;28;20486;-62
2024/02/15 10:09:53;;;;;;;2.00;1.20;;;21.00;48.30;;;;;;4981831;28;20443;-61
2024/02/15 10:12:20;;;;;;;2.87;1.40;;;21.20;48.40;;;;;;4997670;28;20187;-59
2024/02/15 10:14:50;;;;;;;2.93;1.80;;;21.00;47.50;;;;;;5009799;28;20438;-63
2024/02/15 10:17:17;;;;;;;3.73;1.70;;;21.00;47.50;;;;;;4965115;28;20514;-62
2024/02/15 10:19:44;;;;;;;3.97;1.67;;;20.90;47.50;;;;;;4967773;28;20481;-62
2024/02/15 10:22:10;;;;;;;1.53;1.23;;;21.20;47.60;;;;;;4966617;28;20438;-62
2024/02/15 10:24:39;;;;;;;2.07;1.53;;;21.40;47.60;;;;;;4967087;28;20863;-61
2024/02/15 10:27:06;;;;;;;3.23;1.30;;;21.20;47.60;;;;;;4973678;28;20474;-61
2024/02/15 10:29:35;;;;;;;1.53;1.40;;;21.40;46.90;;;;;;4972413;28;20439;-62
2024/02/15 10:32:02;;;;;;;3.70;1.60;;;21.60;46.50;;;;;;4973069;28;20477;-62
2024/02/15 10:34:28;;;;;;;1.70;1.33;;;21.80;46.60;;;;;;4966250;28;20930;-62
2024/02/15 10:36:57;;;;;;;3.60;1.67;;;21.90;46.90;;;;;;4965089;28;20491;-62
2024/02/15 10:39:24;;;;;;;4.23;1.60;;;22.00;46.00;;;;;;4966105;28;20237;-61
2024/02/15 10:41:50;;;;;;;2.57;1.50;;;22.20;45.40;;;;;;4969424;28;20503;-62
2024/02/15 10:44:21;;;;;;;2.83;1.67;;;22.30;45.20;;;;;;4966184;28;20958;-62
2024/02/15 10:46:50;;;;;;;1.63;1.20;;;22.50;44.50;;;;;;4966209;28;20532;-61
2024/02/15 10:49:24;;;;;;;4.20;1.37;;;22.60;44.60;;;;;;4965562;28;20623;-61
2024/02/15 10:52:04;;;;;;;6.30;1.80;;;22.70;43.80;;;;;;4965625;28;20980;-61
2024/02/15 10:54:40;;;;;;;2.13;1.00;;;22.40;43.00;;;;;;4966998;28;20450;-61
2024/02/15 10:57:06;;;;;;;2.30;1.20;;;22.40;44.10;;;;;;4969144;28;21045;-61
2024/02/15 10:59:37;;;;;;;3.13;2.17;;;22.50;43.70;;;;;;4967035;28;20981;-61
2024/02/15 11:02:23;;;;;;;4.63;1.60;;;22.60;43.80;;;;;;4967866;28;20438;-61
2024/02/15 11:04:56;;;;;;;2.50;1.40;;;22.40;43.40;;;;;;4967549;28;20450;-61
2024/02/15 11:07:24;;;;;;;1.80;1.37;;;22.30;44.00;;;;;;4967927;28;21121;-62
2024/02/15 11:09:51;;;;;;;2.67;1.10;;;22.50;44.80;;;;;;4970148;28;20450;-62
2024/02/15 11:12:17;;;;;;;1.97;1.53;;;22.80;43.90;;;;;;4970348;28;20445;-62
2024/02/15 11:14:45;;;;;;;1.87;1.00;;;23.00;44.20;;;;;;4968053;28;20438;-62
2024/02/15 11:17:13;;;;;;;3.73;1.60;;;23.30;43.10;;;;;;4969103;28;20611;-62
2024/02/15 11:19:56;;;;;;;2.37;1.23;;;23.40;42.30;;;;;;4970567;28;20520;-63
2024/02/15 11:22:22;;;;;;;3.73;1.30;;;23.30;42.10;;;;;;4968958;28;20539;-61
2024/02/15 11:24:51;;;;;;;4.03;1.53;;;23.50;42.40;;;;;;4969655;28;20469;-62
2024/02/15 11:27:38;;;;;;;2.53;1.40;;;23.70;41.70;;;;;;4969142;28;20454;-63
2024/02/15 11:30:09;;;;;;;2.03;1.60;;;23.90;42.60;;;;;;4969454;28;20458;-63
2024/02/15 11:32:51;;;;;;;1.77;1.10;;;24.00;41.40;;;;;;4964444;28;21100;-62
2024/02/15 11:35:24;;;;;;;2.47;1.27;;;23.50;41.30;;;;;;4971350;28;20536;-62
2024/02/15 11:37:53;;;;;;;1.63;1.30;;;23.40;40.70;;;;;;4973562;28;20469;-62
2024/02/15 11:40:29;;;;;;;1.83;1.13;;;23.40;42.20;;;;;;4983950;28;20482;-61
2024/02/15 11:42:59;;;;;;;2.30;1.30;;;23.60;42.50;;;;;;4972406;28;20461;-62
2024/02/15 11:45:26;;;;;;;5.40;1.47;;;23.90;42.00;;;;;;4982744;28;20450;-61
2024/02/15 11:47:55;;;;;;;2.40;1.23;;;23.70;41.70;;;;;;4988129;28;20467;-61
2024/02/15 11:50:22;;;;;;;2.67;1.10;;;24.00;41.70;;;;;;4978292;28;20472;-63
2024/02/15 11:52:49;;;;;;;2.17;1.40;;;24.60;40.80;;;;;;4976802;28;20525;-63
2024/02/15 11:55:19;;;;;;;3.10;1.27;;;24.80;40.50;;;;;;4980714;28;20466;-61
2024/02/15 12:19:56;;;;;;;1.30;0.90;;;24.90;38.70;;;;;;4969423;28;20493;-61
2024/02/15 12:22:44;;;;;;;2.93;1.20;;;24.80;39.40;;;;;;4968990;28;20453;-63
2024/02/15 12:25:18;;;;;;;1.20;1.10;;;24.90;39.00;;;;;;4976481;28;20438;-62
2024/02/15 12:27:44;;;;;;;1.20;1.03;;;24.80;39.10;;;;;;4963697;28;20466;-62
2024/02/15 12:30:15;;;;;;;1.17;1.03;;;24.80;39.40;;;;;;4966925;28;20437;-63
2024/02/15 12:32:40;;;;;;;2.33;1.47;;;24.90;39.60;;;;;;4963356;28;20179;-63
2024/02/15 12:35:16;;;;;;;2.03;1.20;;;25.00;39.20;;;;;;4967935;28;20443;-63
2024/02/15 12:37:43;;;;;;;1.10;1.00;;;25.10;38.70;;;;;;4968133;28;20717;-62
2024/02/15 12:40:16;;;;;;;2.27;1.17;;;25.10;39.10;;;;;;4966867;28;20479;-60
2024/02/15 12:42:52;;;;;;;2.40;1.37;;;25.20;39.30;;;;;;4967804;28;20438;-62
2024/02/15 12:45:20;;;;;;;2.87;1.43;;;25.30;39.00;;;;;;4967206;28;20454;-63
2024/02/15 12:47:53;;;;;;;3.87;1.50;;;25.40;38.90;;;;;;4958375;28;20558;-62
2024/02/15 12:50:29;;;;;;;4.07;1.30;;;25.40;38.30;;;;;;4983271;28;20430;-63
2024/02/15 12:52:55;;;;;;;1.40;1.20;;;25.10;38.20;;;;;;4972131;28;20439;-61
2024/02/15 12:55:25;;;;;;;2.90;1.43;;;25.10;38.90;;;;;;4971797;28;20458;-61
2024/02/15 12:57:52;;;;;;;3.90;1.40;;;25.20;38.50;;;;;;4967926;28;20214;-62
2024/02/15 13:00:20;;;;;;;2.60;1.30;;;25.10;37.60;;;;;;4967479;28;20581;-62
2024/02/15 13:02:50;;;;;;;2.70;1.40;;;25.10;38.10;;;;;;4977761;28;20454;-62
2024/02/15 13:05:21;;;;;;;1.47;0.90;;;25.10;38.50;;;;;;4983255;28;20461;-63
2024/02/15 13:07:50;;;;;;;1.37;1.07;;;25.10;38.30;;;;;;4972550;28;20968;-63
2024/02/15 13:10:17;;;;;;;1.77;1.30;;;25.10;38.00;;;;;;4967363;28;20953;-62
2024/02/15 13:12:47;;;;;;;2.80;1.37;;;25.00;38.80;;;;;;4973796;28;20458;-63
2024/02/15 13:15:14;;;;;;;1.40;1.30;;;25.10;38.90;;;;;;4977968;28;20446;-61
2024/02/15 13:17:53;;;;;;;3.93;1.33;;;25.20;38.40;;;;;;4985176;28;20520;-62
2024/02/15 13:20:27;;;;;;;1.83;1.20;;;25.20;38.30;;;;;;5003456;28;20481;-62
2024/02/15 13:22:57;;;;;;;2.60;1.60;;;25.30;38.50;;;;;;4969879;28;20438;-62